createdAt,value
2018-06-25T00:02:17.597Z,5.13
2018-06-25T00:04:46.031Z,11.93
2018-06-25T00:07:14.419Z,4.73
2018-06-25T00:09:42.841Z,3.73
2018-06-25T00:12:11.259Z,5.47
2018-06-25T00:14:39.631Z,3.73
2018-06-25T00:17:07.973Z,5.17
2018-06-25T00:19:36.330Z,3.43
2018-06-25T00:22:04.744Z,3.80
2018-06-25T00:24:33.173Z,4.67
2018-06-25T00:27:01.511Z,3.27
2018-06-25T00:29:29.836Z,3.67
2018-06-25T00:31:58.134Z,5.20
2018-06-25T00:34:26.451Z,2.97
2018-06-25T00:36:54.836Z,6.10
2018-06-25T00:39:23.218Z,8.50
2018-06-25T00:41:51.574Z,4.27
2018-06-25T00:44:19.997Z,5.57
2018-06-25T00:46:48.370Z,8.23
2018-06-25T00:49:16.846Z,3.00
2018-06-25T00:51:45.200Z,4.27
2018-06-25T00:54:13.617Z,4.07
2018-06-25T00:56:41.928Z,8.37
2018-06-25T00:59:21.466Z,4.80
2018-06-25T01:01:49.930Z,4.77
2018-06-25T01:04:18.264Z,4.13
2018-06-25T01:06:46.610Z,6.10
2018-06-25T01:09:14.956Z,2.93
2018-06-25T01:11:43.289Z,5.53
2018-06-25T01:14:11.791Z,5.83
2018-06-25T01:16:40.180Z,3.10
2018-06-25T01:19:09.112Z,6.27
2018-06-25T01:21:37.965Z,9.60
2018-06-25T01:24:06.934Z,3.60
2018-06-25T01:26:35.320Z,5.97
2018-06-25T01:29:03.688Z,5.43
2018-06-25T01:31:31.996Z,4.73
2018-06-25T01:34:00.340Z,6.40
2018-06-25T01:36:28.684Z,2.60
2018-06-25T01:38:57.045Z,4.23
2018-06-25T01:41:25.401Z,3.93
2018-06-25T01:43:53.905Z,2.30
2018-06-25T01:46:22.299Z,2.67
2018-06-25T01:48:50.639Z,3.93
2018-06-25T01:51:19.001Z,2.77
2018-06-25T01:53:47.508Z,2.50
2018-06-25T01:56:15.871Z,2.93
2018-06-25T01:58:44.326Z,2.37
2018-06-25T02:01:12.836Z,3.53
2018-06-25T02:03:41.250Z,3.17
2018-06-25T02:06:09.652Z,3.50
2018-06-25T02:08:38.003Z,3.07
2018-06-25T02:11:06.452Z,1.87
2018-06-25T02:13:34.811Z,2.50
2018-06-25T02:16:03.226Z,3.57
2018-06-25T02:18:31.600Z,2.43
2018-06-25T02:20:59.926Z,2.30
2018-06-25T02:23:28.571Z,3.63
2018-06-25T02:25:56.998Z,11.83
2018-06-25T02:28:25.367Z,2.33
2018-06-25T02:30:53.731Z,2.37
2018-06-25T02:33:22.031Z,1.87
2018-06-25T02:35:50.498Z,3.37
2018-06-25T02:38:18.834Z,3.63
2018-06-25T02:40:47.284Z,4.70
2018-06-25T02:43:15.608Z,2.50
2018-06-25T02:45:44.003Z,4.20
2018-06-25T02:48:12.426Z,2.17
2018-06-25T02:50:40.809Z,2.77
2018-06-25T02:53:09.330Z,9.67
2018-06-25T02:55:37.963Z,8.50
2018-06-25T02:58:06.481Z,4.20
2018-06-25T03:00:34.982Z,5.63
2018-06-25T03:03:03.335Z,4.97
2018-06-25T03:05:31.734Z,2.80
2018-06-25T03:08:00.278Z,1.90
2018-06-25T03:10:28.628Z,2.00
2018-06-25T03:12:56.951Z,3.33
2018-06-25T03:15:25.238Z,1.93
2018-06-25T03:17:53.800Z,1.90
2018-06-25T03:20:22.046Z,1.83
2018-06-25T03:22:50.348Z,12.90
2018-06-25T03:25:18.657Z,2.30
2018-06-25T03:27:46.940Z,1.77
2018-06-25T03:30:15.500Z,2.20
2018-06-25T03:32:43.862Z,1.70
2018-06-25T03:35:12.340Z,3.80
2018-06-25T03:37:40.906Z,1.87
2018-06-25T03:40:09.228Z,2.37
2018-06-25T03:42:37.573Z,1.97
2018-06-25T03:45:06.007Z,4.47
2018-06-25T03:47:34.527Z,1.90
2018-06-25T03:50:02.985Z,3.13
2018-06-25T03:52:31.449Z,2.20
2018-06-25T03:54:59.806Z,2.23
2018-06-25T03:57:28.265Z,3.00
2018-06-25T03:59:56.658Z,3.17
2018-06-25T04:02:25.048Z,1.90
2018-06-25T04:04:53.536Z,4.60
2018-06-25T04:07:22.019Z,2.03
2018-06-25T04:09:50.424Z,1.70
2018-06-25T04:12:18.795Z,1.73
2018-06-25T04:14:47.109Z,1.90
2018-06-25T04:17:15.490Z,2.20
2018-06-25T04:19:43.942Z,1.73
2018-06-25T04:22:12.349Z,9.47
2018-06-25T04:24:40.757Z,67.53
2018-06-25T04:27:09.169Z,68.27
2018-06-25T04:29:37.525Z,73.47
2018-06-25T04:32:05.991Z,72.57
2018-06-25T04:34:34.390Z,64.67
2018-06-25T04:37:02.792Z,43.87
2018-06-25T04:39:31.123Z,40.17
2018-06-25T04:42:00.289Z,40.77
2018-06-25T04:44:28.690Z,35.10
2018-06-25T04:46:57.145Z,28.37
2018-06-25T04:49:25.657Z,31.20
2018-06-25T04:51:57.711Z,27.77
2018-06-25T04:54:27.131Z,20.43
2018-06-25T04:56:55.749Z,20.70
2018-06-25T04:59:24.197Z,23.70
2018-06-25T05:01:52.731Z,18.00
2018-06-25T05:04:21.150Z,17.00
2018-06-25T05:06:49.642Z,14.83
2018-06-25T05:09:18.127Z,12.93
2018-06-25T05:11:46.575Z,16.47
2018-06-25T05:14:15.016Z,11.63
2018-06-25T05:16:43.386Z,6.80
2018-06-25T05:19:11.694Z,4.13
2018-06-25T05:21:40.017Z,8.93
2018-06-25T05:24:08.342Z,16.60
2018-06-25T05:26:36.713Z,21.37
2018-06-25T05:29:05.042Z,11.63
2018-06-25T05:31:33.452Z,5.67
2018-06-25T05:34:01.773Z,10.23
2018-06-25T05:36:30.185Z,9.87
2018-06-25T05:38:58.573Z,9.10
2018-06-25T05:41:26.935Z,13.77
2018-06-25T05:43:55.434Z,6.80
2018-06-25T05:46:23.849Z,17.13
2018-06-25T05:48:52.173Z,14.90
2018-06-25T05:51:20.545Z,12.63
2018-06-25T05:53:48.980Z,13.07
2018-06-25T05:56:17.401Z,7.97
2018-06-25T05:58:45.760Z,11.20
2018-06-25T06:01:14.177Z,6.40
2018-06-25T06:03:42.552Z,10.47
2018-06-25T06:06:10.947Z,6.23
2018-06-25T06:08:39.366Z,8.33
2018-06-25T06:11:07.801Z,7.27
2018-06-25T06:13:36.182Z,4.30
2018-06-25T06:16:04.647Z,1.90
2018-06-25T06:18:33.041Z,6.33
2018-06-25T06:21:01.778Z,6.83
2018-06-25T06:23:30.169Z,5.97
2018-06-25T06:25:58.529Z,5.80
2018-06-25T06:28:26.858Z,3.37
2018-06-25T06:30:55.353Z,6.20
2018-06-25T06:33:23.812Z,1.47
2018-06-25T06:35:52.190Z,3.73
2018-06-25T06:38:20.600Z,2.20
2018-06-25T06:40:48.911Z,2.20
2018-06-25T06:43:17.463Z,3.90
2018-06-25T06:45:47.020Z,2.83
2018-06-25T06:48:15.397Z,1.70
2018-06-25T06:50:43.781Z,2.87
2018-06-25T06:53:12.238Z,1.53
2018-06-25T06:55:40.604Z,2.30
2018-06-25T06:58:08.933Z,2.70
2018-06-25T07:00:37.309Z,5.83
2018-06-25T07:03:05.769Z,2.97
2018-06-25T07:05:34.144Z,5.60
2018-06-25T07:08:02.478Z,3.70
2018-06-25T07:10:30.858Z,5.57
2018-06-25T07:12:59.223Z,1.60
2018-06-25T07:15:27.655Z,3.70
2018-06-25T07:17:56.020Z,7.30
2018-06-25T07:20:24.338Z,1.30
2018-06-25T07:22:53.225Z,2.80
2018-06-25T07:25:22.083Z,3.80
2018-06-25T07:27:50.873Z,1.30
2018-06-25T07:30:19.767Z,2.50
2018-06-25T07:32:48.608Z,1.50
2018-06-25T07:35:17.449Z,1.60
2018-06-25T07:37:46.343Z,1.93
2018-06-25T07:40:15.126Z,1.63
2018-06-25T07:42:43.930Z,1.47
2018-06-25T07:45:12.813Z,2.13
2018-06-25T07:47:41.581Z,2.10
2018-06-25T07:50:10.504Z,1.60
2018-06-25T07:52:39.179Z,4.23
2018-06-25T07:55:07.968Z,2.40
2018-06-25T07:57:36.914Z,5.40
2018-06-25T08:00:06.135Z,2.60
2018-06-25T08:02:34.832Z,2.23
2018-06-25T08:05:03.711Z,2.80
2018-06-25T08:07:32.557Z,1.60
2018-06-25T08:10:01.508Z,3.20
2018-06-25T08:12:30.187Z,1.37
2018-06-25T08:14:58.927Z,2.80
2018-06-25T08:17:27.671Z,3.00
2018-06-25T08:19:56.432Z,3.63
2018-06-25T08:22:25.167Z,2.43
2018-06-25T08:24:53.984Z,1.83
2018-06-25T08:27:22.799Z,1.50
2018-06-25T08:29:51.683Z,1.57
2018-06-25T08:32:20.421Z,1.97
2018-06-25T08:34:49.142Z,2.27
2018-06-25T08:37:18.089Z,1.70
2018-06-25T08:39:46.847Z,2.53
2018-06-25T08:42:15.662Z,1.60
2018-06-25T08:44:44.378Z,5.90
2018-06-25T08:47:13.220Z,3.00
2018-06-25T08:49:42.052Z,2.03
2018-06-25T08:52:10.824Z,6.70
2018-06-25T08:54:39.594Z,3.77
2018-06-25T08:57:08.286Z,7.00
2018-06-25T08:59:36.987Z,2.57
2018-06-25T09:02:05.847Z,2.17
2018-06-25T09:04:34.551Z,1.83
2018-06-25T09:07:03.280Z,15.93
2018-06-25T09:09:32.135Z,2.03
2018-06-25T09:12:00.898Z,1.73
2018-06-25T09:14:29.675Z,1.33
2018-06-25T09:16:58.606Z,3.23
2018-06-25T09:19:27.409Z,1.70
2018-06-25T09:21:56.208Z,1.33
2018-06-25T09:24:24.938Z,4.77
2018-06-25T09:26:53.616Z,2.03
2018-06-25T09:29:22.331Z,1.73
2018-06-25T09:31:51.046Z,2.07
2018-06-25T09:34:50.143Z,5.30
2018-06-25T09:37:19.439Z,2.37
2018-06-25T09:39:48.269Z,2.60
2018-06-25T09:42:17.023Z,1.33
2018-06-25T09:44:45.767Z,2.67
2018-06-25T09:47:14.480Z,2.70
2018-06-25T09:49:43.254Z,1.20
2018-06-25T09:52:12.012Z,4.23
2018-06-25T09:54:40.932Z,1.00
2018-06-25T09:57:09.686Z,1.40
2018-06-25T09:59:38.310Z,2.07
2018-06-25T10:02:07.033Z,1.83
2018-06-25T10:04:35.736Z,5.10
2018-06-25T10:07:04.484Z,1.20
2018-06-25T10:09:33.177Z,1.50
2018-06-25T10:12:01.933Z,3.63
2018-06-25T10:14:30.712Z,2.90
2018-06-25T10:16:59.502Z,2.70
2018-06-25T10:19:28.306Z,1.60
2018-06-25T10:21:56.993Z,1.50
2018-06-25T10:24:28.650Z,1.17
2018-06-25T10:26:57.542Z,1.20
2018-06-25T10:29:26.217Z,1.57
2018-06-25T10:31:54.997Z,1.87
2018-06-25T10:34:23.683Z,1.77
2018-06-25T10:36:52.545Z,1.40
2018-06-25T10:39:21.189Z,2.63
2018-06-25T10:41:49.871Z,1.83
2018-06-25T10:44:19.773Z,1.27
2018-06-25T10:46:48.495Z,2.30
2018-06-25T10:49:17.104Z,2.17
2018-06-25T10:51:45.943Z,2.70
2018-06-25T10:54:14.787Z,1.00
2018-06-25T10:56:43.483Z,0.90
2018-06-25T10:59:12.265Z,1.23
2018-06-25T11:01:42.085Z,1.77
2018-06-25T11:04:10.744Z,2.20
2018-06-25T11:06:39.693Z,2.53
2018-06-25T11:09:10.308Z,0.90
2018-06-25T11:11:38.958Z,1.20
2018-06-25T11:14:07.729Z,0.80
2018-06-25T11:16:38.503Z,1.53
2018-06-25T11:19:07.185Z,0.93
2018-06-25T11:21:35.896Z,1.00
2018-06-25T11:24:04.511Z,2.10
2018-06-25T11:26:33.212Z,1.60
2018-06-25T11:29:01.979Z,1.80
2018-06-25T11:31:30.705Z,1.10
2018-06-25T11:33:59.593Z,0.90
2018-06-25T11:36:28.420Z,1.30
2018-06-25T11:38:57.328Z,1.80
2018-06-25T11:41:26.127Z,2.13
2018-06-25T11:43:54.847Z,1.30
2018-06-25T11:46:23.589Z,2.90
2018-06-25T11:48:52.269Z,1.13
2018-06-25T11:51:21.447Z,1.30
2018-06-25T11:53:50.177Z,1.10
2018-06-25T11:56:18.792Z,1.33
2018-06-25T11:58:47.718Z,3.40
2018-06-25T12:01:16.463Z,1.27
2018-06-25T12:03:45.171Z,1.23
2018-06-25T12:06:13.907Z,3.00
2018-06-25T12:08:42.700Z,4.73
2018-06-25T12:11:11.435Z,2.37
2018-06-25T12:13:40.181Z,2.10
2018-06-25T12:16:08.912Z,1.03
2018-06-25T12:18:37.650Z,2.20
2018-06-25T12:21:06.358Z,1.00
2018-06-25T12:23:34.960Z,1.30
2018-06-25T12:26:03.773Z,2.80
2018-06-25T12:28:32.520Z,3.00
2018-06-25T12:31:01.183Z,3.87
2018-06-25T12:33:29.894Z,1.00
2018-06-25T12:35:58.821Z,1.70
2018-06-25T12:38:27.451Z,6.57
2018-06-25T12:40:56.230Z,3.37
2018-06-25T12:43:25.058Z,6.53
2018-06-25T12:45:53.949Z,4.27
2018-06-25T12:48:23.773Z,1.43
2018-06-25T12:50:52.629Z,6.53
2018-06-25T12:53:21.244Z,3.10
2018-06-25T12:55:49.991Z,7.63
2018-06-25T12:58:18.612Z,4.63
2018-06-25T13:00:47.345Z,3.20
2018-06-25T13:03:16.160Z,1.90
2018-06-25T13:05:44.956Z,9.27
2018-06-25T13:08:13.675Z,1.30
2018-06-25T13:10:42.410Z,1.27
2018-06-25T13:13:11.123Z,2.40
2018-06-25T13:15:39.783Z,4.30
2018-06-25T13:18:08.537Z,5.73
2018-06-25T13:20:37.325Z,3.57
2018-06-25T13:23:05.971Z,1.20
2018-06-25T13:25:34.745Z,6.30
2018-06-25T13:28:03.506Z,4.50
2018-06-25T13:30:32.289Z,3.70
2018-06-25T13:33:01.084Z,1.40
2018-06-25T13:38:51.907Z,3.23
2018-06-25T13:41:20.701Z,6.00
2018-06-25T13:43:49.432Z,6.23
2018-06-25T13:46:18.077Z,1.20
2018-06-25T13:48:46.947Z,1.93
2018-06-25T13:51:16.363Z,1.10
2018-06-25T13:53:45.289Z,3.60
2018-06-25T13:56:14.154Z,5.43
2018-06-25T13:58:42.887Z,1.30
2018-06-25T14:01:11.760Z,1.30
2018-06-25T14:03:40.702Z,1.20
2018-06-25T14:06:09.530Z,1.50
2018-06-25T14:08:38.307Z,2.07
2018-06-25T14:11:07.274Z,1.87
2018-06-25T14:13:36.130Z,1.70
2018-06-25T14:16:04.867Z,1.13
2018-06-25T14:18:33.805Z,1.10
2018-06-25T14:21:02.592Z,1.10
2018-06-25T14:23:36.989Z,2.20
2018-06-25T14:26:07.205Z,1.73
2018-06-25T14:28:38.879Z,2.20
2018-06-25T14:31:12.980Z,3.73
2018-06-25T14:33:43.248Z,1.33
2018-06-25T14:36:12.087Z,2.20
2018-06-25T14:38:40.847Z,2.10
2018-06-25T14:41:09.783Z,5.67
2018-06-25T14:43:38.645Z,4.70
2018-06-25T14:46:07.573Z,1.43
2018-06-25T14:48:36.368Z,1.70
2018-06-25T14:51:05.127Z,1.37
2018-06-25T14:53:33.930Z,1.10
2018-06-25T14:56:02.694Z,1.10
2018-06-25T14:58:31.411Z,5.20
2018-06-25T15:01:00.316Z,0.93
2018-06-25T15:03:29.062Z,2.80
2018-06-25T15:05:57.881Z,1.30
2018-06-25T15:08:26.584Z,4.77
2018-06-25T15:10:55.478Z,1.27
2018-06-25T15:13:25.347Z,1.00
2018-06-25T15:15:53.996Z,0.90
2018-06-25T15:18:22.766Z,0.90
2018-06-25T15:20:51.483Z,1.70
2018-06-25T15:23:20.489Z,1.53
2018-06-25T15:25:49.594Z,1.00
2018-06-25T15:28:19.357Z,0.83
2018-06-25T15:30:50.186Z,0.80
2018-06-25T15:33:19.259Z,1.43
2018-06-25T15:35:48.063Z,1.00
2018-06-25T15:38:16.890Z,0.80
2018-06-25T15:40:45.701Z,1.00
2018-06-25T15:43:14.536Z,1.27
2018-06-25T15:45:43.493Z,1.43
2018-06-25T15:48:12.383Z,1.70
2018-06-25T15:50:41.338Z,1.67
2018-06-25T15:53:10.145Z,1.00
2018-06-25T15:55:39.056Z,1.03
2018-06-25T15:58:08.005Z,0.97
2018-06-25T16:00:36.993Z,1.73
2018-06-25T16:03:05.802Z,1.20
2018-06-25T16:05:34.581Z,1.00
2018-06-25T16:08:03.543Z,1.23
2018-06-25T16:10:32.592Z,2.00
2018-06-25T16:13:03.439Z,1.00
2018-06-25T16:15:32.206Z,4.30
2018-06-25T16:18:01.044Z,2.00
2018-06-25T16:20:29.858Z,0.80
2018-06-25T16:22:58.679Z,1.47
2018-06-25T16:25:27.506Z,2.50
2018-06-25T16:27:56.334Z,1.43
2018-06-25T16:30:25.142Z,0.80
2018-06-25T16:32:53.896Z,1.67
2018-06-25T16:35:22.760Z,0.80
2018-06-25T16:37:51.518Z,1.50
2018-06-25T16:40:20.363Z,2.40
2018-06-25T16:42:49.188Z,1.00
2018-06-25T16:45:17.925Z,1.00
2018-06-25T16:47:46.727Z,1.03
2018-06-25T16:50:15.560Z,0.70
2018-06-25T16:52:44.322Z,2.17
2018-06-25T16:55:13.132Z,1.00
2018-06-25T16:57:42.187Z,1.50
2018-06-25T17:00:11.032Z,3.03
2018-06-25T17:02:39.932Z,0.70
2018-06-25T17:05:08.737Z,1.00
2018-06-25T17:07:37.692Z,2.03
2018-06-25T17:10:06.605Z,5.60
2018-06-25T17:12:35.447Z,2.03
2018-06-25T17:15:04.483Z,1.20
2018-06-25T17:17:34.481Z,2.63
2018-06-25T17:20:03.411Z,2.90
2018-06-25T17:22:32.524Z,5.40
2018-06-25T17:25:01.376Z,0.80
2018-06-25T17:27:30.198Z,3.03
2018-06-25T17:29:59.532Z,0.80
2018-06-25T17:32:28.289Z,1.27
2018-06-25T17:34:57.707Z,2.20
2018-06-25T17:37:26.779Z,2.87
2018-06-25T17:39:55.838Z,1.10
2018-06-25T17:42:24.643Z,4.70
2018-06-25T17:44:53.572Z,3.00
2018-06-25T17:47:22.456Z,2.30
2018-06-25T17:49:51.161Z,4.80
2018-06-25T17:52:19.823Z,1.07
2018-06-25T17:54:48.777Z,1.30
2018-06-25T17:57:17.617Z,5.10
2018-06-25T17:59:46.439Z,3.67
2018-06-25T18:02:15.470Z,1.10
2018-06-25T18:04:44.263Z,1.20
2018-06-25T18:07:13.109Z,2.23
2018-06-25T18:09:41.945Z,2.17
2018-06-25T18:12:10.614Z,2.77
2018-06-25T18:14:39.451Z,1.00
2018-06-25T18:17:08.489Z,2.60
2018-06-25T18:19:37.448Z,8.23
2018-06-25T18:22:06.148Z,3.10
2018-06-25T18:24:34.994Z,10.53
2018-06-25T18:27:03.820Z,11.03
2018-06-25T18:29:32.663Z,5.93
2018-06-25T18:32:01.626Z,8.27
2018-06-25T18:34:30.413Z,6.20
2018-06-25T18:36:59.278Z,8.77
2018-06-25T18:39:28.336Z,17.70
2018-06-25T18:41:57.220Z,4.97
2018-06-25T18:44:26.085Z,18.93
2018-06-25T18:46:55.959Z,21.40
2018-06-25T18:49:24.657Z,18.47
2018-06-25T18:51:53.575Z,18.07
2018-06-25T18:54:22.435Z,23.37
2018-06-25T18:56:51.204Z,8.33
2018-06-25T18:59:20.115Z,11.97
2018-06-25T19:01:49.025Z,9.90
2018-06-25T19:04:18.058Z,30.87
2018-06-25T19:06:46.869Z,8.93
2018-06-25T19:09:17.171Z,7.47
2018-06-25T19:11:46.029Z,9.13
2018-06-25T19:14:21.004Z,12.50
2018-06-25T19:17:23.309Z,13.60
2018-06-25T19:20:04.470Z,17.27
2018-06-25T19:23:03.901Z,13.37
2018-06-25T19:25:51.611Z,9.70
2018-06-25T19:28:32.652Z,10.40
2018-06-25T19:33:56.887Z,9.07
2018-06-25T19:36:39.061Z,4.60
2018-06-25T19:39:27.237Z,13.07
2018-06-25T19:44:57.503Z,4.93
2018-06-25T19:50:41.647Z,5.30
2018-06-25T19:53:21.600Z,4.57
2018-06-25T19:56:01.948Z,5.53
2018-06-25T19:58:46.983Z,6.77
2018-06-25T20:01:31.102Z,7.30
2018-06-25T20:07:05.264Z,6.83
2018-06-25T20:09:46.143Z,2.63
2018-06-25T20:12:28.290Z,4.40
2018-06-25T20:15:08.239Z,5.83
2018-06-25T20:17:43.867Z,4.80
2018-06-25T20:20:20.019Z,4.87
2018-06-25T20:23:06.480Z,4.60
2018-06-25T20:25:42.341Z,4.00
2018-06-25T20:28:15.590Z,4.30
2018-06-25T20:30:55.235Z,1.80
2018-06-25T20:33:29.852Z,3.00
2018-06-25T20:36:08.409Z,1.70
2018-06-25T20:38:42.964Z,5.53
2018-06-25T20:41:19.421Z,4.83
2018-06-25T20:43:56.344Z,4.07
2018-06-25T20:46:31.552Z,6.70
2018-06-25T20:49:07.778Z,5.13
2018-06-25T20:51:43.547Z,3.07
2018-06-25T20:54:17.868Z,2.57
2018-06-25T20:56:54.460Z,1.93
2018-06-25T21:02:13.329Z,1.93
2018-06-25T21:04:50.451Z,2.13
2018-06-25T21:07:23.480Z,3.47
2018-06-25T21:09:57.904Z,5.70
2018-06-25T21:12:33.255Z,1.70
2018-06-25T21:15:06.586Z,5.23
2018-06-25T21:17:38.311Z,3.20
2018-06-25T21:20:15.582Z,8.80
2018-06-25T21:22:45.868Z,3.53
2018-06-25T21:25:16.049Z,2.00
2018-06-25T21:27:47.288Z,1.87
2018-06-25T21:30:16.287Z,2.57
2018-06-25T21:32:45.165Z,2.00
2018-06-25T21:35:14.988Z,1.87
2018-06-25T21:37:44.032Z,3.43
2018-06-25T21:40:15.326Z,2.00
2018-06-25T21:42:44.059Z,6.43
2018-06-25T21:45:12.889Z,4.47
2018-06-25T21:47:44.216Z,2.97
2018-06-25T21:50:15.460Z,5.17
2018-06-25T21:52:45.596Z,2.60
2018-06-25T21:55:14.335Z,4.40
2018-06-25T21:57:43.192Z,2.37
2018-06-25T22:00:13.414Z,1.90
2018-06-25T22:02:42.429Z,3.17
2018-06-25T22:05:11.277Z,1.60
2018-06-25T22:07:39.910Z,1.50
2018-06-25T22:10:08.882Z,3.73
2018-06-25T22:12:37.608Z,3.47
2018-06-25T22:15:06.970Z,7.90
2018-06-25T22:17:35.708Z,1.50
2018-06-25T22:20:04.881Z,1.27
2018-06-25T22:22:33.770Z,5.67
2018-06-25T22:25:02.647Z,4.30
2018-06-25T22:27:31.865Z,9.83
2018-06-25T22:30:01.158Z,2.97
2018-06-25T22:32:30.011Z,3.83
2018-06-25T22:34:58.840Z,5.40
2018-06-25T22:37:27.494Z,2.27
2018-06-25T22:39:56.754Z,6.30
2018-06-25T22:42:27.129Z,2.57
2018-06-25T22:44:55.973Z,2.70
2018-06-25T22:47:24.755Z,3.13
2018-06-25T22:49:53.567Z,6.90
2018-06-25T22:52:22.295Z,2.93
2018-06-25T22:54:51.052Z,4.20
2018-06-25T22:57:19.724Z,3.33
2018-06-25T22:59:48.503Z,3.23
2018-06-25T23:02:17.201Z,4.83
2018-06-25T23:04:45.875Z,6.30
2018-06-25T23:07:14.639Z,4.30
2018-06-25T23:09:43.300Z,2.20
2018-06-25T23:12:12.084Z,4.03
2018-06-25T23:14:40.722Z,3.10
2018-06-25T23:17:09.345Z,9.37
2018-06-25T23:19:38.106Z,3.00
2018-06-25T23:22:07.057Z,3.47
2018-06-25T23:24:35.793Z,2.70
2018-06-25T23:27:04.533Z,5.57
2018-06-25T23:29:33.169Z,3.50
2018-06-25T23:32:01.784Z,2.20
2018-06-25T23:34:30.490Z,6.40
2018-06-25T23:36:59.209Z,4.70
2018-06-25T23:39:27.882Z,4.13
2018-06-25T23:41:56.557Z,6.23
2018-06-25T23:44:25.221Z,4.60
2018-06-25T23:46:53.884Z,2.60
2018-06-25T23:49:22.597Z,4.63
2018-06-25T23:51:51.313Z,3.27
2018-06-25T23:54:20.198Z,5.30
2018-06-25T23:56:48.912Z,3.03
2018-06-25T23:59:17.796Z,5.67
